Flight Track Log - Related Links

Times and Time Zones

All times are in EDT time to prevent confusion due to time zone crossing. See the N1910A flight status page for this flight to view local times or setup timezone preferences in your user account.

Time Position Orientation Groundspeed Altitude Reporting Facility
EDT Latitude Longitude Course Direction KTS MPH feet Rate Location/Type
Fri 12:12:11 PM 45.8617 -108.7367 131° Southeast 235 270 9,300  Level Salt Lake Center
Fri 12:13:13 PM 45.8192 -108.8161 233° Southwest 287 330 12,100 2,710 Climbing Salt Lake Center
Fri 12:14:15 PM 45.7450 -108.7492 148° Southeast 316 364 14,900 2,419 Climbing Salt Lake Center
Fri 12:15:17 PM 45.6847 -108.6586 134° Southeast 316 364 17,100 2,177 Climbing Salt Lake Center
Fri 12:16:00 PM 45.3607 -107.9069 131° Southeast  Level FlightAware Approximate
Fri 12:16:19 PM 45.6192 -108.5564 132° Southeast 325 374 19,400  Level Salt Lake Center
Fri 12:17:00 PM 45.2921 -107.7953 131° Southeast  Level FlightAware Approximate
Fri 12:17:21 PM 45.5531 -108.4561 133° Southeast 336 387 21,600  Level Salt Lake Center
Fri 12:18:23 PM 45.4892 -108.3578 133° Southeast 338 389 23,500 1,887 Climbing Salt Lake Center
Fri 12:19:25 PM 45.4211 -108.2556 133° Southeast 351 404 25,500 1,887 Climbing Salt Lake Center
Fri 12:20:27 PM 45.3531 -108.1525 133° Southeast 352 405 27,400 2,032 Climbing Salt Lake Center
Fri 12:21:29 PM 45.2850 -108.0489 133° Southeast 358 412 29,700 1,935 Climbing Salt Lake Center
Fri 12:22:31 PM 45.2189 -107.9511 134° Southeast 347 399 31,400 1,742 Climbing Salt Lake Center
Fri 12:23:33 PM 45.1417 -107.8342 133° Southeast 340 391 33,300 1,742 Climbing Salt Lake Center
Fri 12:24:35 PM 45.0781 -107.7414 134° Southeast 328 377 35,000 1,597 Climbing Salt Lake Center
Fri 12:25:37 PM 45.0208 -107.6500 132° Southeast 313 360 36,600 968 Climbing Salt Lake Center
Fri 12:26:39 PM 44.9608 -107.5628 134° Southeast 310 357 37,000 194 Climbing Salt Lake Center
Fri 12:27:41 PM 44.8956 -107.4697 135° Southeast 323 372 37,000  Level Salt Lake Center
Fri 12:28:43 PM 44.8275 -107.3697 134° Southeast 344 396 37,000  Level Salt Lake Center
Fri 12:29:45 PM 44.7606 -107.2739 135° Southeast 345 397 37,000  Level Salt Lake Center
Fri 12:30:48 PM 44.6817 -107.1575 134° Southeast 344 396 37,000  Level Salt Lake Center
Fri 12:31:50 PM 44.6169 -107.0631 134° Southeast 339 390 37,000  Level Salt Lake Center
Fri 12:32:52 PM 44.5522 -106.9703 134° Southeast 337 388 37,000  Level Salt Lake Center
Fri 12:33:54 PM 44.4881 -106.8775 134° Southeast 335 386 37,000  Level Salt Lake Center
Fri 12:34:57 PM 44.4228 -106.7844 134° Southeast 335 386 37,000  Level Salt Lake Center
Fri 12:35:58 PM 44.3597 -106.6925 134° Southeast 333 383 37,000  Level Salt Lake Center
Fri 12:36:41 PM 44.3081 -106.6200 135° Southeast 332 382 37,000  Level Denver Center
Fri 12:37:43 PM 44.2439 -106.5292 135° Southeast 332 382 37,000  Level Denver Center
Fri 12:38:45 PM 44.1778 -106.4333 134° Southeast 332 382 37,000 242 Level Denver Center
Fri 12:39:47 PM 44.1039 -106.3317 135° Southeast 332 382 37,500 677 Climbing Denver Center
Fri 12:40:49 PM 44.0436 -106.2467 135° Southeast 329 379 38,400 726 Climbing Denver Center
Fri 12:41:51 PM 43.9736 -106.1503 135° Southeast 322 371 39,000 290 Climbing Denver Center
Fri 12:42:53 PM 43.9111 -106.0617 134° Southeast 331 381 39,000  Level Denver Center
Fri 12:43:55 PM 43.8353 -105.9586 136° Southeast 338 389 39,000  Level Denver Center
Fri 12:44:58 PM 43.7736 -105.8683 133° Southeast 339 390 39,000  Level Denver Center
Fri 12:46:00 PM 43.6989 -105.7681 136° Southeast 338 389 39,000  Level Denver Center
Fri 12:47:02 PM 43.6369 -105.6817 135° Southeast 335 386 39,000  Level Denver Center
Fri 12:48:04 PM 43.5750 -105.5947 135° Southeast 334 384 39,000  Level Denver Center
Fri 12:49:06 PM 43.5011 -105.4961 136° Southeast 334 384 39,000  Level Denver Center
Fri 12:50:08 PM 43.4397 -105.4119 135° Southeast 329 379 39,000  Level Denver Center
Fri 12:51:10 PM 43.3675 -105.3153 136° Southeast 327 376 39,000  Level Denver Center
Fri 12:52:12 PM 43.3069 -105.2317 135° Southeast 326 375 39,000  Level Denver Center
Fri 12:53:14 PM 43.2356 -105.1347 135° Southeast 325 374 39,000  Level Denver Center
Fri 12:54:16 PM 43.1742 -105.0525 136° Southeast 324 373 39,000  Level Denver Center
Fri 12:55:18 PM 43.1025 -104.9575 136° Southeast 323 372 39,000  Level Denver Center
Fri 12:56:20 PM 43.0419 -104.8747 135° Southeast 323 372 39,000  Level Denver Center
Fri 12:57:22 PM 42.9706 -104.7806 136° Southeast 322 371 39,000  Level Denver Center
Fri 12:58:25 PM 42.9092 -104.6986 136° Southeast 322 371 39,000  Level Denver Center
Fri 12:59:27 PM 42.8378 -104.6031 136° Southeast 322 371 39,000  Level Denver Center
Fri 01:00:29 PM 42.7761 -104.5200 135° Southeast 322 371 39,000  Level Denver Center
Fri 01:01:31 PM 42.7133 -104.4361 136° Southeast 323 372 39,000  Level Denver Center
Fri 01:02:33 PM 42.6386 -104.3383 136° Southeast 326 375 39,000  Level Denver Center
Fri 01:03:35 PM 42.5750 -104.2558 136° Southeast 326 375 39,000  Level Denver Center
Fri 01:04:37 PM 42.5014 -104.1608 136° Southeast 326 375 39,000  Level Denver Center
Fri 01:05:39 PM 42.4383 -104.0797 136° Southeast 326 375 39,000  Level Denver Center
Fri 01:06:41 PM 42.3653 -103.9831 136° Southeast 326 375 39,000  Level Denver Center
Fri 01:07:43 PM 42.3017 -103.9017 137° Southeast 326 375 39,000  Level Denver Center
Fri 01:08:45 PM 42.2272 -103.8072 137° Southeast 327 376 39,000  Level Denver Center
Fri 01:09:47 PM 42.1644 -103.7258 136° Southeast 327 376 39,000  Level Denver Center
Fri 01:10:50 PM 42.1014 -103.6444 136° Southeast 328 377 39,000  Level Denver Center
Fri 01:11:52 PM 42.0269 -103.5517 137° Southeast 327 376 39,000  Level Denver Center
Fri 01:12:54 PM 41.9639 -103.4711 136° Southeast 327 376 39,000  Level Denver Center
Fri 01:13:56 PM 41.8908 -103.3772 136° Southeast 326 375 39,000  Level Denver Center
Fri 01:14:58 PM 41.8272 -103.2986 137° Southeast 326 375 39,000  Level Denver Center
Fri 01:16:00 PM 41.7528 -103.2047 137° Southeast 328 377 39,000  Level Denver Center
Fri 01:17:02 PM 41.6892 -103.1247 137° Southeast 326 375 39,000  Level Denver Center
Fri 01:18:04 PM 41.6156 -103.0300 136° Southeast 327 376 39,000  Level Denver Center
Fri 01:19:06 PM 41.5500 -102.9508 138° Southeast 328 377 39,000  Level Denver Center
Fri 01:20:08 PM 41.4756 -102.8578 137° Southeast 328 377 39,000  Level Denver Center
Fri 01:21:10 PM 41.4106 -102.7781 137° Southeast 329 379 39,000  Level Denver Center
Fri 01:22:13 PM 41.3364 -102.6839 136° Southeast 329 379 39,000  Level Denver Center
Fri 01:23:15 PM 41.2647 -102.5958 137° Southeast 333 383 39,000  Level Denver Center
Fri 01:24:17 PM 41.1997 -102.5178 138° Southeast 333 383 39,000  Level Denver Center
Fri 01:25:19 PM 41.1236 -102.4222 137° Southeast 334 384 39,000  Level Denver Center
Fri 01:26:21 PM 41.0586 -102.3442 138° Southeast 334 384 39,000  Level Denver Center
Fri 01:27:23 PM 40.9819 -102.2500 137° Southeast 335 386 39,000  Level Denver Center
Fri 01:28:25 PM 40.9169 -102.1703 137° Southeast 334 384 39,000  Level Denver Center
Fri 01:29:27 PM 40.8519 -102.0908 137° Southeast 334 384 39,000  Level Denver Center
Fri 01:30:29 PM 40.7742 -101.9967 137° Southeast 335 386 39,000  Level Denver Center
Fri 01:31:31 PM 40.7058 -101.9158 138° Southeast 339 390 39,000  Level Denver Center
Fri 01:32:33 PM 40.6289 -101.8239 138° Southeast 339 390 39,000  Level Denver Center
Fri 01:33:35 PM 40.5628 -101.7436 137° Southeast 339 390 39,000  Level Denver Center
Fri 01:34:38 PM 40.4850 -101.6511 138° Southeast 339 390 39,000  Level Denver Center
Fri 01:35:40 PM 40.4178 -101.5711 138° Southeast 339 390 39,000  Level Denver Center
Fri 01:36:42 PM 40.3394 -101.4786 138° Southeast 339 390 39,000  Level Denver Center
Fri 01:37:44 PM 40.2728 -101.4011 138° Southeast 338 389 39,000  Level Denver Center
Fri 01:38:46 PM 40.1953 -101.3089 138° Southeast 337 388 39,000  Level Denver Center
Fri 01:39:48 PM 40.1283 -101.2303 138° Southeast 338 389 39,000  Level Denver Center
Fri 01:40:50 PM 40.0506 -101.1400 138° Southeast 338 389 39,000  Level Denver Center
Fri 01:41:52 PM 39.9883 -101.0531 133° Southeast 339 390 39,000  Level Denver Center
Fri 01:42:54 PM 39.9481 -100.9186 111° Southeast 357 411 39,000  Level Denver Center
Fri 01:43:57 PM 39.9161 -100.8017 110° East 357 411 39,000  Level Denver Center
Fri 01:44:59 PM 39.8778 -100.6667 110° East 357 411 39,000  Level Denver Center
Fri 01:46:01 PM 39.8453 -100.5506 110° East 357 411 39,000  Level Denver Center
Fri 01:47:03 PM 39.8072 -100.4139 110° East 358 412 39,000  Level Denver Center
Fri 01:48:05 PM 39.7736 -100.2978 111° Southeast 358 412 39,000  Level Denver Center
Fri 01:49:07 PM 39.7353 -100.1628 110° East 359 413 39,000  Level Denver Center
Fri 01:50:09 PM 39.7022 -100.0456 110° East 359 413 39,000  Level Denver Center
Fri 01:51:11 PM 39.6650 -99.9178 111° Southeast 361 415 39,000  Level Denver Center
Fri 01:52:13 PM 39.6303 -99.7967 110° East 360 414 39,000  Level Denver Center
Fri 01:53:15 PM 39.5939 -99.6750 111° Southeast 360 414 39,000  Level Denver Center
Fri 01:54:17 PM 39.5522 -99.5297 110° East 360 414 39,000  Level Denver Center
Fri 01:55:20 PM 39.5169 -99.4086 111° Southeast 360 414 39,000  Level Denver Center
Fri 01:56:22 PM 39.4811 -99.2889 111° Southeast 360 414 39,000  Level Denver Center
Fri 01:57:24 PM 39.4422 -99.1589 111° Southeast 358 412 39,000  Level Denver Center
Fri 01:58:26 PM 39.4078 -99.0436 111° Southeast 358 412 39,000  Level Denver Center
Fri 01:59:28 PM 39.3742 -98.9303 111° Southeast 357 411 39,000  Level Denver Center
Fri 02:00:30 PM 39.3311 -98.7875 111° Southeast 356 410 39,000  Level Denver Center
Fri 02:01:32 PM 39.2950 -98.6672 111° Southeast 357 411 39,000  Level Denver Center
Fri 02:02:34 PM 39.2589 -98.5478 111° Southeast 357 411 39,000  Level Denver Center
Fri 02:03:36 PM 39.2219 -98.4283 112° Southeast 358 412 39,000  Level Denver Center
Fri 02:05:04 PM 39.1706 -98.2589 111° Southeast 362 417 39,000  Level Kansas City Center
Fri 02:06:06 PM 39.1333 -98.1361 111° Southeast 363 418 39,000  Level Kansas City Center
Fri 02:07:10 PM 39.0878 -97.9878 112° Southeast 366 421 39,000  Level Kansas City Center
Fri 02:08:10 PM 39.0492 -97.8653 112° Southeast 366 421 39,000  Level Kansas City Center
Fri 02:09:15 PM 39.0133 -97.7497 112° Southeast 367 422 39,000  Level Kansas City Center
Fri 02:10:15 PM 38.9739 -97.6267 112° Southeast 371 427 39,000  Level Kansas City Center
Fri 02:11:16 PM 38.9331 -97.4964 112° Southeast 373 429 39,000  Level Kansas City Center
Fri 02:12:20 PM 38.8928 -97.3686 112° Southeast 382 440 39,000  Level Kansas City Center
Fri 02:13:21 PM 38.8528 -97.2444 112° Southeast 381 438 39,000  Level Kansas City Center
Fri 02:14:25 PM 38.8047 -97.0967 113° Southeast 377 434 39,000  Level Kansas City Center
Fri 02:15:26 PM 38.7667 -96.9761 112° Southeast 372 428 39,000  Level Kansas City Center
Fri 02:16:26 PM 38.7267 -96.8544 113° Southeast 371 427 39,000  Level Kansas City Center
Fri 02:17:31 PM 38.6819 -96.7186 113° Southeast 370 426 39,000  Level Kansas City Center
Fri 02:18:31 PM 38.6425 -96.5967 112° Southeast 370 426 39,000  Level Kansas City Center
Fri 02:19:35 PM 38.6031 -96.4747 112° Southeast 371 427 39,000  Level Kansas City Center
Fri 02:20:36 PM 38.5622 -96.3531 113° Southeast 372 428 39,000  Level Kansas City Center
Fri 02:21:37 PM 38.5219 -96.2306 113° Southeast 373 429 39,000  Level Kansas City Center
Fri 02:22:41 PM 38.4819 -96.1067 112° Southeast 375 432 39,000  Level Kansas City Center
Fri 02:23:41 PM 38.4325 -95.9594 113° Southeast 376 433 39,000  Level Kansas City Center
Fri 02:24:45 PM 38.3911 -95.8361 113° Southeast 377 434 39,000  Level Kansas City Center
Fri 02:25:45 PM 38.3489 -95.7122 113° Southeast 379 436 39,000  Level Kansas City Center
Fri 02:26:49 PM 38.3081 -95.5889 113° Southeast 381 438 39,000  Level Kansas City Center
Fri 02:27:50 PM 38.2656 -95.4647 114° Southeast 384 442 39,000  Level Kansas City Center
Fri 02:28:54 PM 38.2150 -95.3164 113° Southeast 383 441 39,000  Level Kansas City Center
Fri 02:29:55 PM 38.1722 -95.1900 113° Southeast 386 444 39,000  Level Kansas City Center
Fri 02:30:56 PM 38.1306 -95.0667 113° Southeast 386 444 39,000  Level Kansas City Center
Fri 02:31:59 PM 38.0850 -94.9411 115° Southeast 386 444 39,000  Level Kansas City Center
Fri 02:33:00 PM 38.0428 -94.8158 113° Southeast 386 444 39,000  Level Kansas City Center
Fri 02:34:04 PM 37.9903 -94.6644 114° Southeast 387 445 39,000  Level Kansas City Center
Fri 02:35:05 PM 37.9461 -94.5383 114° Southeast 390 449 39,000  Level Kansas City Center
Fri 02:37:08 PM 37.8556 -94.2756 114° Southeast 393 452 39,000  Level Memphis Center
Fri 02:38:10 PM 37.8097 -94.1461 114° Southeast 397 457 39,000  Level Memphis Center
Fri 02:39:12 PM 37.7625 -94.0172 115° Southeast 399 459 39,000  Level Memphis Center
Fri 02:40:15 PM 37.7172 -93.8892 114° Southeast 398 458 39,000  Level Kansas City Center
Fri 02:41:20 PM 37.6619 -93.7344 114° Southeast 400 460 39,000  Level Kansas City Center
Fri 02:42:20 PM 37.6172 -93.6064 114° Southeast 400 460 39,000  Level Kansas City Center
Fri 02:43:21 PM 37.5703 -93.4778 115° Southeast 400 460 39,000 240 Level Kansas City Center
Fri 02:44:25 PM 37.5231 -93.3494 115° Southeast 401 461 39,500 672 Climbing Kansas City Center
Fri 02:45:26 PM 37.4758 -93.2222 115° Southeast 401 461 40,400 726 Climbing Kansas City Center
Fri 02:46:29 PM 37.4306 -93.0978 115° Southeast 400 460 41,000 290 Climbing Kansas City Center
Fri 02:47:30 PM 37.3733 -92.9447 115° Southeast 400 460 41,000  Level Kansas City Center
Fri 02:48:32 PM 37.3261 -92.8161 115° Southeast 401 461 41,000  Level Kansas City Center
Fri 02:49:36 PM 37.2794 -92.6906 115° Southeast 401 461 41,000  Level Kansas City Center
Fri 02:50:36 PM 37.2333 -92.5658 115° Southeast 401 461 41,000  Level Kansas City Center
Fri 02:51:38 PM 37.1869 -92.4422 115° Southeast 399 459 41,000  Level Kansas City Center
Fri 02:52:40 PM 37.1411 -92.3208 115° Southeast 393 452 41,000  Level Kansas City Center
Fri 02:53:43 PM 37.0861 -92.1747 115° Southeast 390 449 41,000  Level Kansas City Center
Fri 02:55:46 PM 36.9953 -91.9367 115° Southeast 383 441 41,000  Level Memphis Center
Fri 02:56:48 PM 36.9511 -91.8172 115° Southeast 382 440 41,000  Level Memphis Center
Fri 02:57:50 PM 36.9056 -91.7000 116° Southeast 381 438 41,000  Level Memphis Center
Fri 02:58:52 PM 36.8603 -91.5842 116° Southeast 377 434 41,000  Level Memphis Center
Fri 02:59:54 PM 36.8061 -91.4414 115° Southeast 377 434 41,000  Level Memphis Center
Fri 03:00:56 PM 36.7600 -91.3258 116° Southeast 376 433 41,000  Level Memphis Center
Fri 03:01:58 PM 36.7147 -91.2094 116° Southeast 376 433 41,000  Level Memphis Center
Fri 03:03:00 PM 36.6692 -91.0950 116° Southeast 376 433 41,000  Level Memphis Center
Fri 03:04:03 PM 36.6250 -90.9792 115° Southeast 374 430 41,000  Level Memphis Center
Fri 03:05:05 PM 36.5689 -90.8400 117° Southeast 374 430 41,000  Level Memphis Center
Fri 03:06:07 PM 36.5253 -90.7253 115° Southeast 373 429 41,000  Level Memphis Center
Fri 03:07:09 PM 36.4781 -90.6108 117° Southeast 373 429 41,000  Level Memphis Center
Fri 03:08:11 PM 36.4333 -90.4944 116° Southeast 373 429 41,000  Level Memphis Center
Fri 03:09:13 PM 36.3872 -90.3786 116° Southeast 373 429 41,000  Level Memphis Center
Fri 03:10:15 PM 36.3403 -90.2642 117° Southeast 373 429 41,000  Level Memphis Center
Fri 03:11:17 PM 36.2847 -90.1267 117° Southeast 373 429 41,000  Level Memphis Center
Fri 03:12:19 PM 36.2378 -90.0106 117° Southeast 374 430 41,000  Level Memphis Center
Fri 03:13:22 PM 36.1906 -89.8953 117° Southeast 375 432 41,000  Level Memphis Center
Fri 03:14:24 PM 36.1436 -89.7794 117° Southeast 375 432 41,000  Level Memphis Center
Fri 03:15:26 PM 36.0969 -89.6653 117° Southeast 375 432 41,000  Level Memphis Center
Fri 03:16:28 PM 36.0394 -89.5250 117° Southeast 379 436 41,000  Level Memphis Center
Fri 03:17:30 PM 35.9914 -89.4089 117° Southeast 380 437 41,000  Level Memphis Center
Fri 03:18:33 PM 35.9433 -89.2922 117° Southeast 381 438 41,000  Level Memphis Center
Fri 03:19:34 PM 35.8958 -89.1753 117° Southeast 381 438 41,000  Level Memphis Center
Fri 03:20:36 PM 35.8469 -89.0581 117° Southeast 382 440 41,000  Level Memphis Center
Fri 03:21:38 PM 35.7878 -88.9178 117° Southeast 383 441 41,000  Level Memphis Center
Fri 03:22:40 PM 35.7389 -88.8011 117° Southeast 384 442 41,000  Level Memphis Center
Fri 03:23:43 PM 35.6894 -88.6842 117° Southeast 384 442 41,000  Level Memphis Center
Fri 03:24:45 PM 35.6444 -88.5622 114° Southeast 387 445 41,000 -97 Level Memphis Center
Fri 03:25:47 PM 35.5989 -88.4419 115° Southeast 388 447 40,800 -629 Descending Memphis Center
Fri 03:26:49 PM 35.5425 -88.2875 114° Southeast 406 467 39,700 -1,016 Descending Memphis Center
Fri 03:27:51 PM 35.4911 -88.1531 115° Southeast 428 493 38,700 -968 Descending Memphis Center
Fri 03:28:53 PM 35.4406 -88.0208 115° Southeast 440 506 37,700 -1,016 Descending Memphis Center
Fri 03:29:55 PM 35.3808 -87.8614 115° Southeast 453 521 36,600 -1,016 Descending Memphis Center
Fri 03:30:57 PM 35.3289 -87.7222 115° Southeast 454 522 35,600 -1,016 Descending Memphis Center
Fri 03:31:59 PM 35.2772 -87.5864 115° Southeast 447 514 34,500 -1,258 Descending Memphis Center
Fri 03:33:01 PM 35.2256 -87.4511 115° Southeast 442 509 33,000 -1,548 Descending Memphis Center
Fri 03:34:03 PM 35.1739 -87.3153 115° Southeast 442 509 31,300 -960 Descending Memphis Center
Fri 03:35:06 PM 35.1219 -87.1808 115° Southeast 441 507 31,000 -144 Descending Memphis Center
Fri 03:36:08 PM 35.0714 -87.0511 115° Southeast 430 495 31,000 -97 Level Memphis Center
Fri 03:37:10 PM 35.0125 -86.9000 115° Southeast 418 481 30,800 -871 Descending Memphis Center
Fri 03:38:12 PM 34.9625 -86.7697 115° Southeast 417 480 29,200 -1,500 Descending Memphis Center
Fri 03:39:14 PM 34.9081 -86.6311 116° Southeast 440 506 27,700 -1,452 Descending Memphis Center
Fri 03:40:16 PM 34.8547 -86.4958 116° Southeast 444 511 26,200 -1,452 Descending Memphis Center
Fri 03:41:18 PM 34.8019 -86.3644 116° Southeast 438 504 24,700 -1,065 Descending Memphis Center
Fri 03:42:20 PM 34.7522 -86.2386 116° Southeast 420 483 24,000 -339 Descending Memphis Center
Fri 03:43:22 PM 34.6939 -86.1044 118° Southeast 385 443 24,000  Level Memphis Center
Fri 03:44:25 PM 34.6456 -86.0000 119° Southeast 364 419 24,000  Level Memphis Center
Fri 03:45:03 PM 34.6125 -85.9292 120° Southeast 368 423 24,000  Level Atlanta Center
Fri 03:46:03 PM 34.5556 -85.8244 123° Southeast 363 418 24,000  Level Atlanta Center
Fri 03:47:03 PM 34.4922 -85.7272 128° Southeast 368 423 24,000 -300 Level Atlanta Center
Fri 03:48:03 PM 34.4331 -85.6281 126° Southeast 368 423 23,400 -1,250 Descending Atlanta Center
Fri 03:49:03 PM 34.3800 -85.5414 127° Southeast 368 423 21,500 -2,150 Descending Atlanta Center
Fri 03:50:03 PM 34.3436 -85.4325 112° Southeast 357 411 19,100 -2,267 Descending Atlanta Center
Fri 03:52:03 PM 34.2917 -85.2231 107° East 331 381 14,700 -2,233 Descending Atlanta Center
Fri 03:53:03 PM 34.2653 -85.1222 108° East 317 365 12,400 -2,100 Descending Atlanta Center
Fri 03:54:03 PM 34.2392 -85.0264 108° East 311 358 10,500 -1,750 Descending Atlanta Center
Fri 03:55:03 PM 34.2147 -84.9381 108° East 292 336 8,900 -1,250 Descending Atlanta Center
Fri 03:56:03 PM 34.1819 -84.8525 115° Southeast 287 330 8,000 -500 Descending Atlanta Center
Fri 03:57:03 PM 34.1197 -84.7967 143° Southeast 274 315 7,900 -700 Descending Atlanta Center
Fri 03:58:03 PM 34.0572 -84.7433 145° Southeast 268 308 6,600 -1,400 Descending Atlanta Center
Fri 03:59:03 PM 33.9950 -84.6903 145° Southeast 273 314 5,100 -1,500 Descending Atlanta Center
Fri 04:00:03 PM 33.9328 -84.6397 146° Southeast 273 314 3,600 -1,050 Descending Atlanta Center
Fri 04:01:03 PM 33.8828 -84.5842 137° Southeast 260 299 3,000 -503 Descending Atlanta Center
Fri 04:02:26 PM 33.8167 -84.5000 133° Southeast 206 237 2,400 -713 Descending Atlanta TRACON
Fri 04:03:26 PM 33.7833 -84.5000 180° South 158 182 1,300 -1,100 Descending Atlanta TRACON
Fri 04:05:00 PM 33.7667 -84.5167 140° Southeast  Level FlightAware Approximate
Fri 04:12:00 PM 33.7791 -84.5214 343° North  Level Estimated

Login

Don't have an account? Register now (free) for customized features, flight alerts, and more!